createdAt,value
2018-03-18T00:01:31.867Z,68.03
2018-03-18T00:03:59.555Z,68.54
2018-03-18T00:06:27.298Z,68.93
2018-03-18T00:08:55.058Z,68.81
2018-03-18T00:11:22.718Z,68.45
2018-03-18T00:13:50.574Z,68.39
2018-03-18T00:16:18.362Z,68.59
2018-03-18T00:18:46.139Z,68.92
2018-03-18T00:21:13.820Z,69.00
2018-03-18T00:23:41.618Z,68.51
2018-03-18T00:26:09.287Z,68.63
2018-03-18T00:28:36.991Z,68.49
2018-03-18T00:31:05.546Z,67.99
2018-03-18T00:33:33.287Z,68.21
2018-03-18T00:36:01.010Z,68.94
2018-03-18T00:38:28.720Z,69.10
2018-03-18T00:40:56.392Z,69.55
2018-03-18T00:43:24.087Z,69.38
2018-03-18T00:45:51.771Z,68.93
2018-03-18T00:48:19.490Z,68.69
2018-03-18T00:50:47.172Z,69.27
2018-03-18T00:53:14.846Z,69.50
2018-03-18T00:55:42.712Z,69.84
2018-03-18T00:58:10.502Z,69.88
2018-03-18T01:00:38.210Z,69.37
2018-03-18T01:03:05.977Z,68.98
2018-03-18T01:05:33.736Z,69.45
2018-03-18T01:08:01.403Z,68.99
2018-03-18T01:10:29.110Z,69.33
2018-03-18T01:12:56.835Z,68.89
2018-03-18T01:15:24.911Z,69.29
2018-03-18T01:17:52.599Z,69.79
2018-03-18T01:20:20.322Z,69.26
2018-03-18T01:22:48.010Z,69.15
2018-03-18T01:25:15.704Z,69.23
2018-03-18T01:27:43.381Z,69.90
2018-03-18T01:30:11.105Z,69.60
2018-03-18T01:32:39.168Z,68.81
2018-03-18T01:35:06.931Z,68.92
2018-03-18T01:37:34.651Z,68.95
2018-03-18T01:40:02.375Z,69.01
2018-03-18T01:42:30.066Z,69.72
2018-03-18T01:44:57.899Z,69.82
2018-03-18T01:47:25.583Z,69.66
2018-03-18T01:49:53.352Z,69.79
2018-03-18T01:52:21.028Z,69.59
2018-03-18T01:54:48.751Z,69.23
2018-03-18T01:57:16.478Z,69.54
2018-03-18T01:59:44.190Z,69.23
2018-03-18T02:02:11.887Z,69.47
2018-03-18T02:04:39.612Z,69.38
2018-03-18T02:07:07.284Z,69.02
2018-03-18T02:09:35.011Z,69.05
2018-03-18T02:12:02.685Z,68.53
2018-03-18T02:14:30.391Z,68.37
2018-03-18T02:16:58.057Z,68.54
2018-03-18T02:19:25.727Z,68.71
2018-03-18T02:21:53.401Z,68.90
2018-03-18T02:24:21.096Z,68.73
2018-03-18T02:26:48.791Z,68.70
2018-03-18T02:29:16.502Z,68.29
2018-03-18T02:31:44.167Z,68.06
2018-03-18T02:34:11.893Z,68.32
2018-03-18T02:36:39.593Z,68.74
2018-03-18T02:39:07.302Z,68.32
2018-03-18T02:41:34.963Z,68.81
2018-03-18T02:44:02.657Z,68.85
2018-03-18T02:46:30.344Z,68.83
2018-03-18T02:48:58.058Z,68.72
2018-03-18T02:51:25.727Z,68.37
2018-03-18T02:53:53.497Z,68.32
2018-03-18T02:56:21.263Z,68.01
2018-03-18T02:58:49.006Z,67.57
2018-03-18T03:01:16.666Z,67.91
2018-03-18T03:03:44.393Z,68.15
2018-03-18T03:06:12.080Z,67.74
2018-03-18T03:08:39.912Z,67.52
2018-03-18T03:11:07.583Z,67.85
2018-03-18T03:13:35.292Z,68.24
2018-03-18T03:16:02.970Z,68.37
2018-03-18T03:18:30.705Z,68.58
2018-03-18T03:20:58.387Z,68.86
2018-03-18T03:23:26.480Z,68.34
2018-03-18T03:25:54.159Z,68.77
2018-03-18T03:28:21.871Z,68.80
2018-03-18T03:30:49.543Z,68.23
2018-03-18T03:33:17.296Z,68.25
2018-03-18T03:35:45.024Z,67.96
2018-03-18T03:38:12.726Z,66.30
2018-03-18T03:40:40.619Z,66.87
2018-03-18T03:43:08.331Z,67.66
2018-03-18T03:45:36.047Z,67.44
2018-03-18T03:48:03.768Z,67.72
2018-03-18T03:50:31.474Z,68.47
2018-03-18T03:52:59.206Z,68.47
2018-03-18T03:55:26.918Z,68.27
2018-03-18T03:57:54.614Z,66.96
2018-03-18T04:00:22.318Z,66.90
2018-03-18T04:02:50.079Z,67.75
2018-03-18T04:05:17.758Z,66.50
2018-03-18T04:07:45.479Z,66.57
2018-03-18T04:10:13.183Z,66.54
2018-03-18T04:12:40.894Z,66.38
2018-03-18T04:15:08.571Z,66.62
2018-03-18T04:17:36.288Z,67.13
2018-03-18T04:20:03.971Z,67.68
2018-03-18T04:22:31.679Z,66.09
2018-03-18T04:24:59.378Z,65.98
2018-03-18T04:27:27.076Z,66.33
2018-03-18T04:29:54.739Z,66.48
2018-03-18T04:32:22.536Z,66.85
2018-03-18T04:34:50.226Z,65.65
2018-03-18T04:37:17.929Z,65.79
2018-03-18T04:39:45.641Z,65.37
2018-03-18T04:42:13.348Z,65.99
2018-03-18T04:44:42.076Z,65.73
2018-03-18T04:47:09.862Z,65.92
2018-03-18T04:49:37.541Z,65.66
2018-03-18T04:52:05.320Z,65.63
2018-03-18T04:54:32.999Z,65.24
2018-03-18T04:57:00.715Z,65.55
2018-03-18T04:59:29.361Z,65.70
2018-03-18T05:01:57.091Z,65.79
2018-03-18T05:04:24.946Z,65.39
2018-03-18T05:06:52.625Z,66.00
2018-03-18T05:09:20.399Z,65.03
2018-03-18T05:11:48.193Z,65.04
2018-03-18T05:14:15.910Z,65.19
2018-03-18T05:16:43.639Z,65.50
2018-03-18T05:19:11.524Z,65.82
2018-03-18T05:21:39.251Z,66.75
2018-03-18T05:24:06.928Z,67.05
2018-03-18T05:26:34.666Z,67.15
2018-03-18T05:29:02.424Z,67.92
2018-03-18T05:31:30.126Z,69.02
2018-03-18T05:33:57.811Z,69.64
2018-03-18T05:36:25.527Z,70.93
2018-03-18T05:38:53.207Z,72.27
2018-03-18T05:41:20.947Z,72.34
2018-03-18T05:43:48.647Z,71.78
2018-03-18T05:46:16.395Z,69.32
2018-03-18T05:48:44.092Z,68.59
2018-03-18T05:51:11.849Z,68.11
2018-03-18T05:53:39.545Z,68.51
2018-03-18T05:56:07.249Z,68.04
2018-03-18T05:58:34.974Z,67.04
2018-03-18T06:01:03.466Z,67.52
2018-03-18T06:03:31.161Z,67.85
2018-03-18T06:05:58.864Z,67.80
2018-03-18T06:08:26.548Z,67.23
2018-03-18T06:10:54.276Z,68.51
2018-03-18T06:13:22.046Z,71.71
2018-03-18T06:15:49.751Z,74.06
2018-03-18T06:18:17.466Z,76.19
2018-03-18T06:20:45.263Z,78.37
2018-03-18T06:23:12.994Z,79.49
2018-03-18T06:25:40.789Z,80.35
2018-03-18T06:28:08.519Z,81.25
2018-03-18T06:30:36.246Z,81.70
2018-03-18T06:33:03.941Z,81.66
2018-03-18T06:35:31.660Z,82.17
2018-03-18T06:37:59.347Z,82.60
2018-03-18T06:40:27.048Z,83.14
2018-03-18T06:42:54.743Z,83.65
2018-03-18T06:45:22.520Z,83.53
2018-03-18T06:47:50.279Z,82.91
2018-03-18T06:50:18.047Z,82.99
2018-03-18T06:52:45.721Z,82.99
2018-03-18T06:55:13.419Z,82.57
2018-03-18T06:57:41.098Z,81.96
2018-03-18T07:00:08.797Z,80.77
2018-03-18T07:02:36.498Z,78.66
2018-03-18T07:05:04.187Z,78.59
2018-03-18T07:07:31.906Z,77.93
2018-03-18T07:09:59.711Z,75.98
2018-03-18T07:12:27.394Z,74.31
2018-03-18T07:14:55.102Z,72.89
2018-03-18T07:17:22.899Z,73.79
2018-03-18T07:19:50.849Z,73.40
2018-03-18T07:22:18.609Z,73.62
2018-03-18T07:24:46.428Z,74.14
2018-03-18T07:27:14.106Z,73.74
2018-03-18T07:29:41.804Z,73.25
2018-03-18T07:32:09.562Z,71.82
2018-03-18T07:34:37.284Z,72.59
2018-03-18T07:37:04.992Z,71.68
2018-03-18T07:39:32.832Z,71.83
2018-03-18T07:42:00.731Z,72.48
2018-03-18T07:44:28.447Z,73.29
2018-03-18T07:46:56.167Z,74.02
2018-03-18T07:49:23.851Z,74.70
2018-03-18T07:51:51.637Z,74.07
2018-03-18T07:54:19.324Z,73.26
2018-03-18T07:56:46.969Z,72.25
2018-03-18T07:59:14.667Z,72.01
2018-03-18T08:01:42.436Z,72.31
2018-03-18T08:04:10.098Z,72.53
2018-03-18T08:06:38.495Z,73.00
2018-03-18T08:09:06.171Z,72.66
2018-03-18T08:11:33.879Z,73.52
2018-03-18T08:14:01.597Z,72.71
2018-03-18T08:16:29.459Z,73.39
2018-03-18T08:18:57.140Z,73.75
2018-03-18T08:21:24.961Z,73.30
2018-03-18T08:23:52.655Z,73.93
2018-03-18T08:26:20.471Z,74.57
2018-03-18T08:28:48.181Z,75.20
2018-03-18T08:31:15.940Z,73.19
2018-03-18T08:33:43.619Z,73.35
2018-03-18T08:36:11.486Z,72.15
2018-03-18T08:38:39.174Z,70.80
2018-03-18T08:41:07.003Z,70.67
2018-03-18T08:43:34.723Z,70.61
2018-03-18T08:46:02.492Z,71.55
2018-03-18T08:48:30.183Z,73.27
2018-03-18T08:50:58.018Z,73.68
2018-03-18T08:53:25.695Z,71.04
2018-03-18T08:55:53.936Z,71.85
2018-03-18T08:58:21.662Z,71.83
2018-03-18T09:00:49.350Z,71.59
2018-03-18T09:03:17.023Z,71.64
2018-03-18T09:05:44.831Z,71.20
2018-03-18T09:08:12.766Z,71.00
2018-03-18T09:10:40.447Z,70.93
2018-03-18T09:13:08.131Z,72.25
2018-03-18T09:15:35.811Z,72.02
2018-03-18T09:18:03.518Z,72.35
2018-03-18T09:20:31.205Z,71.53
2018-03-18T09:22:58.924Z,73.04
2018-03-18T09:25:26.594Z,73.09
2018-03-18T09:27:54.286Z,73.26
2018-03-18T09:30:21.943Z,72.57
2018-03-18T09:32:49.650Z,73.19
2018-03-18T09:35:17.503Z,73.51
2018-03-18T09:37:45.206Z,72.98
2018-03-18T09:40:12.881Z,71.97
2018-03-18T09:42:40.587Z,72.13
2018-03-18T09:45:08.274Z,71.16
2018-03-18T09:47:36.019Z,70.18
2018-03-18T09:50:03.684Z,70.34
2018-03-18T09:52:31.526Z,69.68
2018-03-18T09:54:59.340Z,69.68
2018-03-18T09:57:27.087Z,67.09
2018-03-18T09:59:54.764Z,67.21
2018-03-18T10:02:22.479Z,66.17
2018-03-18T10:04:50.171Z,65.62
2018-03-18T10:07:17.860Z,65.63
2018-03-18T10:09:45.546Z,65.79
2018-03-18T10:12:13.254Z,65.75
2018-03-18T10:14:40.950Z,65.12
2018-03-18T10:17:08.718Z,63.62
2018-03-18T10:19:36.394Z,61.88
2018-03-18T10:22:04.114Z,62.11
2018-03-18T10:24:31.885Z,61.91
2018-03-18T10:26:59.582Z,61.34
2018-03-18T10:29:27.281Z,60.59
2018-03-18T10:31:55.006Z,60.55
2018-03-18T10:34:22.683Z,60.69
2018-03-18T10:36:50.400Z,59.84
2018-03-18T10:39:18.095Z,59.85
2018-03-18T10:41:45.793Z,60.32
2018-03-18T10:44:13.470Z,60.90
2018-03-18T10:46:41.191Z,60.06
2018-03-18T10:49:08.864Z,60.31
2018-03-18T10:51:36.570Z,59.95
2018-03-18T10:54:04.369Z,60.17
2018-03-18T10:56:32.091Z,60.60
2018-03-18T10:58:59.789Z,59.12
2018-03-18T11:01:33.596Z,58.48
2018-03-18T11:04:06.821Z,58.85
2018-03-18T11:06:34.535Z,58.43
2018-03-18T11:09:02.231Z,59.79
2018-03-18T11:11:29.885Z,59.08
2018-03-18T11:13:57.570Z,59.19
2018-03-18T11:16:25.263Z,57.62
2018-03-18T11:18:52.975Z,58.09
2018-03-18T11:21:20.834Z,58.29
2018-03-18T11:23:48.663Z,58.68
2018-03-18T11:26:16.297Z,59.08
2018-03-18T11:28:43.992Z,58.75
2018-03-18T11:31:11.694Z,58.89
2018-03-18T11:33:39.390Z,59.13
2018-03-18T11:36:07.087Z,57.94
2018-03-18T11:38:34.796Z,57.33
2018-03-18T11:41:02.475Z,58.47
2018-03-18T11:43:30.183Z,57.79
2018-03-18T11:45:57.851Z,56.21
2018-03-18T11:48:25.511Z,55.44
2018-03-18T11:50:53.254Z,56.36
2018-03-18T11:53:21.079Z,56.32
2018-03-18T11:55:48.806Z,55.83
2018-03-18T11:58:16.444Z,54.84
2018-03-18T12:00:44.186Z,54.91
2018-03-18T12:03:11.874Z,54.93
2018-03-18T12:05:39.644Z,54.98
2018-03-18T12:08:07.401Z,54.83
2018-03-18T12:10:35.103Z,54.24
2018-03-18T12:13:02.947Z,54.52
2018-03-18T12:15:30.656Z,53.64
2018-03-18T12:17:58.329Z,53.59
2018-03-18T12:20:26.029Z,53.76
2018-03-18T12:22:53.715Z,53.97
2018-03-18T12:25:21.438Z,54.75
2018-03-18T12:27:49.205Z,54.09
2018-03-18T12:30:16.902Z,53.85
2018-03-18T12:32:44.569Z,54.01
2018-03-18T12:35:12.311Z,54.30
2018-03-18T12:37:39.986Z,53.81
2018-03-18T12:40:19.619Z,53.68
2018-03-18T12:42:59.220Z,53.53
2018-03-18T12:45:26.936Z,53.36
2018-03-18T12:47:54.611Z,53.28
2018-03-18T12:50:22.392Z,54.44
2018-03-18T12:52:50.066Z,52.98
2018-03-18T12:55:17.747Z,53.41
2018-03-18T12:57:45.403Z,53.08
2018-03-18T13:00:13.922Z,52.93
2018-03-18T13:02:41.691Z,53.59
2018-03-18T13:05:09.512Z,53.70
2018-03-18T13:07:37.188Z,53.85
2018-03-18T13:10:05.030Z,54.48
2018-03-18T13:12:32.712Z,53.28
2018-03-18T13:15:00.452Z,53.56
2018-03-18T13:17:28.153Z,52.23
2018-03-18T13:19:55.872Z,52.88
2018-03-18T13:22:23.581Z,51.62
2018-03-18T13:24:51.367Z,51.55
2018-03-18T13:27:19.033Z,51.80
2018-03-18T13:29:46.751Z,51.53
2018-03-18T13:32:14.439Z,51.89
2018-03-18T13:34:42.152Z,50.92
2018-03-18T13:37:09.830Z,50.77
2018-03-18T13:39:37.537Z,49.22
2018-03-18T13:42:05.339Z,48.34
2018-03-18T13:44:33.059Z,48.44
2018-03-18T13:47:00.786Z,46.55
2018-03-18T13:49:28.994Z,46.24
2018-03-18T13:51:56.679Z,45.96
2018-03-18T13:54:24.418Z,45.44
2018-03-18T13:56:52.091Z,45.93
2018-03-18T13:59:19.702Z,45.30
2018-03-18T14:01:47.371Z,45.23
2018-03-18T14:04:15.026Z,44.50
2018-03-18T14:06:42.700Z,45.34
2018-03-18T14:09:10.322Z,45.40
2018-03-18T14:11:37.912Z,44.04
2018-03-18T14:14:05.560Z,42.83
2018-03-18T14:16:33.332Z,43.06
2018-03-18T14:19:00.998Z,44.16
2018-03-18T14:21:28.599Z,43.49
2018-03-18T14:23:56.226Z,43.07
2018-03-18T14:26:23.826Z,42.12
2018-03-18T14:28:51.663Z,43.75
2018-03-18T14:31:19.270Z,43.37
2018-03-18T14:33:46.915Z,42.68
2018-03-18T15:13:07.981Z,45.71
2018-03-18T15:15:35.700Z,45.42
2018-03-18T15:18:03.401Z,45.86
2018-03-18T15:20:31.060Z,43.77
2018-03-18T15:22:58.723Z,44.59
2018-03-18T15:25:26.580Z,44.68
2018-03-18T15:27:54.180Z,43.13
2018-03-18T15:30:21.795Z,43.42
2018-03-18T15:32:49.478Z,43.24
2018-03-18T15:35:17.141Z,44.71
2018-03-18T15:37:44.727Z,44.90
2018-03-18T15:40:12.495Z,45.75
2018-03-18T15:42:40.107Z,45.40
2018-03-18T15:45:07.826Z,46.42
2018-03-18T15:47:35.515Z,46.28
2018-03-18T15:50:03.226Z,46.23
2018-03-18T15:52:30.858Z,46.11
2018-03-18T15:54:58.486Z,45.96
2018-03-18T15:57:26.083Z,45.81
2018-03-18T15:59:53.724Z,45.86
2018-03-18T16:02:21.327Z,44.71
2018-03-18T16:04:48.950Z,44.03
2018-03-18T16:07:16.559Z,44.57
2018-03-18T16:09:44.187Z,45.41
2018-03-18T16:12:11.870Z,44.86
2018-03-18T16:14:39.596Z,45.60
2018-03-18T16:17:07.466Z,45.69
2018-03-18T16:19:36.076Z,45.83
2018-03-18T16:22:03.857Z,45.83
2018-03-18T16:24:31.601Z,46.34
2018-03-18T16:26:59.301Z,46.97
2018-03-18T16:29:38.602Z,47.38
2018-03-18T16:32:06.293Z,46.83
2018-03-18T16:34:34.015Z,46.12
2018-03-18T16:37:01.701Z,46.87
2018-03-18T16:39:29.408Z,46.04
2018-03-18T16:41:57.094Z,46.70
2018-03-18T16:44:24.803Z,46.49
2018-03-18T16:46:52.513Z,47.36
2018-03-18T16:49:20.231Z,47.96
2018-03-18T16:51:48.474Z,47.26
2018-03-18T16:54:16.188Z,48.12
2018-03-18T16:56:43.907Z,47.16
2018-03-18T16:59:11.765Z,48.18
2018-03-18T17:01:39.483Z,47.96
2018-03-18T17:04:07.233Z,47.59
2018-03-18T17:06:34.926Z,47.61
2018-03-18T17:09:03.592Z,48.56
2018-03-18T17:11:32.056Z,48.25
2018-03-18T17:14:00.415Z,48.32
2018-03-18T17:16:28.120Z,49.16
2018-03-18T17:18:55.824Z,49.40
2018-03-18T17:21:23.528Z,49.34
2018-03-18T17:23:51.425Z,49.29
2018-03-18T17:26:19.160Z,49.76
2018-03-18T17:28:47.061Z,49.86
2018-03-18T17:31:14.813Z,49.43
2018-03-18T17:33:42.542Z,49.08
2018-03-18T17:36:10.261Z,49.64
2018-03-18T17:38:38.015Z,49.92
2018-03-18T17:41:05.719Z,50.51
2018-03-18T17:43:33.451Z,49.89
2018-03-18T17:46:13.225Z,50.20
2018-03-18T17:48:52.646Z,50.58
2018-03-18T17:51:32.307Z,50.42
2018-03-18T17:54:11.748Z,49.96
2018-03-18T17:56:39.440Z,50.63
2018-03-18T17:59:07.346Z,50.79
2018-03-18T18:01:35.151Z,51.27
2018-03-18T18:04:02.900Z,50.75
2018-03-18T18:06:31.175Z,51.16
2018-03-18T18:08:58.925Z,50.90
2018-03-18T18:11:26.643Z,51.23
2018-03-18T18:13:55.188Z,51.39
2018-03-18T18:16:23.424Z,51.96
2018-03-18T18:18:51.281Z,52.00
2018-03-18T18:21:19.501Z,52.42
2018-03-18T18:23:47.232Z,52.67
2018-03-18T18:26:15.084Z,52.53
2018-03-18T18:28:42.818Z,52.92
2018-03-18T18:31:10.492Z,53.16
2018-03-18T18:33:38.219Z,52.71
2018-03-18T18:36:05.928Z,52.41
2018-03-18T18:38:33.684Z,53.13
2018-03-18T18:41:01.392Z,53.09
2018-03-18T18:43:29.148Z,52.29
2018-03-18T18:45:56.826Z,51.41
2018-03-18T18:48:24.563Z,50.38
2018-03-18T18:50:53.064Z,50.84
2018-03-18T18:53:20.845Z,50.34
2018-03-18T18:55:48.500Z,50.51
2018-03-18T18:58:16.237Z,50.37
2018-03-18T19:00:43.945Z,49.92
2018-03-18T19:03:11.712Z,49.71
2018-03-18T19:05:40.568Z,49.87
2018-03-18T19:08:08.298Z,50.46
2018-03-18T19:10:35.996Z,50.29
2018-03-18T19:13:03.758Z,50.43
2018-03-18T19:15:31.514Z,49.90
2018-03-18T19:17:59.247Z,50.04
2018-03-18T19:20:26.951Z,50.77
2018-03-18T19:22:54.673Z,50.59
2018-03-18T19:25:22.381Z,51.50
2018-03-18T19:27:50.092Z,51.38
2018-03-18T19:30:17.815Z,50.86
2018-03-18T19:32:45.538Z,51.13
2018-03-18T19:35:13.220Z,51.75
2018-03-18T19:37:40.962Z,52.00
2018-03-18T19:40:08.648Z,52.10
2018-03-18T19:42:36.512Z,51.01
2018-03-18T19:45:04.317Z,50.14
2018-03-18T19:47:32.038Z,52.97
2018-03-18T19:50:00.426Z,50.71
2018-03-18T19:52:28.132Z,47.47
2018-03-18T19:54:55.831Z,48.13
2018-03-18T19:57:23.664Z,48.00
2018-03-18T19:59:51.355Z,60.27
2018-03-18T20:02:19.072Z,47.32
2018-03-18T20:04:46.754Z,44.92
2018-03-18T20:07:14.462Z,45.51
2018-03-18T20:09:42.144Z,46.22
2018-03-18T20:12:09.842Z,44.59
2018-03-18T20:14:37.498Z,45.03
2018-03-18T20:17:05.199Z,44.44
2018-03-18T20:19:32.876Z,45.00
2018-03-18T20:22:00.581Z,45.85
2018-03-18T20:24:28.257Z,45.39
2018-03-18T20:26:55.982Z,45.63
2018-03-18T20:29:23.702Z,46.26
2018-03-18T20:31:51.510Z,46.25
2018-03-18T20:34:19.198Z,46.84
2018-03-18T20:36:46.920Z,47.44
2018-03-18T20:39:14.667Z,45.86
2018-03-18T20:41:42.362Z,45.95
2018-03-18T20:44:10.071Z,46.74
2018-03-18T20:46:37.772Z,44.76
2018-03-18T20:49:05.448Z,44.50
2018-03-18T20:51:33.153Z,44.31
2018-03-18T20:54:00.830Z,45.53
2018-03-18T20:56:28.683Z,45.71
2018-03-18T20:58:56.351Z,45.95
2018-03-18T21:01:24.049Z,45.93
2018-03-18T21:03:51.741Z,45.53
2018-03-18T21:06:19.466Z,44.58
2018-03-18T21:08:47.131Z,44.33
2018-03-18T21:11:14.843Z,44.15
2018-03-18T21:13:42.525Z,44.52
2018-03-18T21:16:10.226Z,44.45
2018-03-18T21:18:37.907Z,45.00
2018-03-18T21:21:05.853Z,45.36
2018-03-18T21:23:33.520Z,43.86
2018-03-18T21:26:01.319Z,44.23
2018-03-18T21:28:28.981Z,44.03
2018-03-18T21:30:56.717Z,44.13
2018-03-18T21:33:24.404Z,44.70
2018-03-18T21:35:52.116Z,44.63
2018-03-18T21:38:19.800Z,44.42
2018-03-18T21:40:47.491Z,44.29
2018-03-18T21:43:15.188Z,44.27
2018-03-18T21:45:42.908Z,43.91
2018-03-18T21:48:10.568Z,44.39
2018-03-18T21:50:38.294Z,44.69
2018-03-18T21:53:05.967Z,45.29
2018-03-18T21:55:33.710Z,44.80
2018-03-18T21:58:01.388Z,44.38
2018-03-18T22:00:29.104Z,45.41
2018-03-18T22:02:56.774Z,45.60
2018-03-18T22:05:24.486Z,44.35
2018-03-18T22:07:52.151Z,44.78
2018-03-18T22:10:19.910Z,44.04
2018-03-18T22:12:47.578Z,44.11
2018-03-18T22:15:15.284Z,43.91
2018-03-18T22:17:42.991Z,44.20
2018-03-18T22:20:10.817Z,43.68
2018-03-18T22:22:38.498Z,43.69
2018-03-18T22:25:06.183Z,44.40
2018-03-18T22:27:33.826Z,43.54
2018-03-18T22:30:01.529Z,43.58
2018-03-18T22:32:29.203Z,44.63
2018-03-18T22:34:56.897Z,44.48
2018-03-18T22:37:24.568Z,44.29
2018-03-18T22:39:52.274Z,44.43
2018-03-18T22:42:19.944Z,44.29
2018-03-18T22:44:47.761Z,43.97
2018-03-18T22:47:15.454Z,44.41
2018-03-18T22:49:43.147Z,44.00
2018-03-18T22:52:10.810Z,44.54
2018-03-18T22:54:38.496Z,44.40
2018-03-18T22:57:06.164Z,44.29
2018-03-18T22:59:33.886Z,44.69
2018-03-18T23:02:01.603Z,44.59
2018-03-18T23:04:29.304Z,44.56
2018-03-18T23:06:56.955Z,44.50
2018-03-18T23:09:24.827Z,44.35
2018-03-18T23:11:52.491Z,45.21
2018-03-18T23:14:20.194Z,45.01
2018-03-18T23:16:47.951Z,45.23
2018-03-18T23:19:15.654Z,44.63
2018-03-18T23:21:43.455Z,45.19
2018-03-18T23:24:11.131Z,45.40
2018-03-18T23:26:38.828Z,45.99
2018-03-18T23:29:06.510Z,45.43
2018-03-18T23:31:34.178Z,45.50
2018-03-18T23:34:01.867Z,45.44
2018-03-18T23:36:29.535Z,45.37
2018-03-18T23:38:57.296Z,45.56
2018-03-18T23:41:24.962Z,46.03
2018-03-18T23:43:52.682Z,46.16
2018-03-18T23:46:20.354Z,45.79
2018-03-18T23:48:48.058Z,45.91
2018-03-18T23:51:15.704Z,45.55
2018-03-18T23:53:43.406Z,46.23
2018-03-18T23:56:11.070Z,45.95
2018-03-18T23:58:38.755Z,45.60
